sensor_id;sensor_type;location;lat;lon;timestamp;temperature;humidity
12853;DHT22;6495;51.808;7.478;2023-04-03T00:02:29;5.60;99.90
12853;DHT22;6495;51.808;7.478;2023-04-03T00:05:18;5.60;99.90
12853;DHT22;6495;51.808;7.478;2023-04-03T00:08:06;5.50;99.90
12853;DHT22;6495;51.808;7.478;2023-04-03T00:10:58;5.50;99.90
12853;DHT22;6495;51.808;7.478;2023-04-03T00:13:46;5.50;99.90
12853;DHT22;6495;51.808;7.478;2023-04-03T00:16:35;5.40;99.90
12853;DHT22;6495;51.808;7.478;2023-04-03T00:19:24;5.40;99.90
12853;DHT22;6495;51.808;7.478;2023-04-03T00:22:12;5.40;99.90
12853;DHT22;6495;51.808;7.478;2023-04-03T00:25:03;5.30;99.90
12853;DHT22;6495;51.808;7.478;2023-04-03T00:27:58;5.30;99.90
12853;DHT22;6495;51.808;7.478;2023-04-03T00:30:48;5.20;99.90
12853;DHT22;6495;51.808;7.478;2023-04-03T00:33:38;5.20;99.90
12853;DHT22;6495;51.808;7.478;2023-04-03T00:36:27;5.20;99.90
12853;DHT22;6495;51.808;7.478;2023-04-03T00:39:15;5.10;99.90
12853;DHT22;6495;51.808;7.478;2023-04-03T00:42:04;5.10;99.90
12853;DHT22;6495;51.808;7.478;2023-04-03T00:45:33;5.10;99.90
12853;DHT22;6495;51.808;7.478;2023-04-03T00:48:26;5.10;99.90
12853;DHT22;6495;51.808;7.478;2023-04-03T00:51:20;5.00;99.90
12853;DHT22;6495;51.808;7.478;2023-04-03T00:54:12;5.00;99.90
12853;DHT22;6495;51.808;7.478;2023-04-03T00:57:01;5.00;99.90
12853;DHT22;6495;51.808;7.478;2023-04-03T00:59:54;5.00;99.90
12853;DHT22;6495;51.808;7.478;2023-04-03T01:02:49;4.90;99.90
12853;DHT22;6495;51.808;7.478;2023-04-03T01:05:39;4.90;99.90
12853;DHT22;6495;51.808;7.478;2023-04-03T01:08:29;4.90;99.90
12853;DHT22;6495;51.808;7.478;2023-04-03T01:11:18;4.90;99.90
12853;DHT22;6495;51.808;7.478;2023-04-03T01:14:08;4.80;99.90
12853;DHT22;6495;51.808;7.478;2023-04-03T01:16:56;4.80;99.90
12853;DHT22;6495;51.808;7.478;2023-04-03T01:19:49;4.80;99.90
12853;DHT22;6495;51.808;7.478;2023-04-03T01:22:52;4.80;99.90
12853;DHT22;6495;51.808;7.478;2023-04-03T01:25:49;4.80;99.90
12853;DHT22;6495;51.808;7.478;2023-04-03T01:28:39;4.70;99.90
12853;DHT22;6495;51.808;7.478;2023-04-03T01:31:30;4.70;99.90
12853;DHT22;6495;51.808;7.478;2023-04-03T01:34:31;4.70;99.90
12853;DHT22;6495;51.808;7.478;2023-04-03T01:37:20;4.60;99.90
12853;DHT22;6495;51.808;7.478;2023-04-03T01:40:09;4.60;99.90
12853;DHT22;6495;51.808;7.478;2023-04-03T01:42:59;4.60;99.90
12853;DHT22;6495;51.808;7.478;2023-04-03T01:45:47;4.60;99.90
12853;DHT22;6495;51.808;7.478;2023-04-03T01:48:39;4.50;99.90
12853;DHT22;6495;51.808;7.478;2023-04-03T01:51:27;4.50;99.90
12853;DHT22;6495;51.808;7.478;2023-04-03T01:54:16;4.50;99.90
12853;DHT22;6495;51.808;7.478;2023-04-03T01:57:05;4.50;99.90
12853;DHT22;6495;51.808;7.478;2023-04-03T01:59:54;4.40;99.90
12853;DHT22;6495;51.808;7.478;2023-04-03T02:02:43;4.40;99.90
12853;DHT22;6495;51.808;7.478;2023-04-03T02:05:34;4.40;99.90
12853;DHT22;6495;51.808;7.478;2023-04-03T02:08:23;4.30;99.90
12853;DHT22;6495;51.808;7.478;2023-04-03T02:11:11;4.30;99.90
12853;DHT22;6495;51.808;7.478;2023-04-03T02:14:00;4.30;99.90
12853;DHT22;6495;51.808;7.478;2023-04-03T02:16:49;4.30;99.90
12853;DHT22;6495;51.808;7.478;2023-04-03T02:19:37;4.30;99.90
12853;DHT22;6495;51.808;7.478;2023-04-03T02:22:28;4.20;99.90
12853;DHT22;6495;51.808;7.478;2023-04-03T02:25:17;4.20;99.90
12853;DHT22;6495;51.808;7.478;2023-04-03T02:28:05;4.20;99.90
12853;DHT22;6495;51.808;7.478;2023-04-03T02:30:54;4.20;99.90
12853;DHT22;6495;51.808;7.478;2023-04-03T02:33:43;4.10;99.90
12853;DHT22;6495;51.808;7.478;2023-04-03T02:36:34;4.10;99.90
12853;DHT22;6495;51.808;7.478;2023-04-03T02:39:27;4.10;99.90
12853;DHT22;6495;51.808;7.478;2023-04-03T02:42:17;4.10;99.90
12853;DHT22;6495;51.808;7.478;2023-04-03T02:45:07;4.00;99.90
12853;DHT22;6495;51.808;7.478;2023-04-03T02:47:56;4.00;99.90
12853;DHT22;6495;51.808;7.478;2023-04-03T02:50:44;4.00;99.90
12853;DHT22;6495;51.808;7.478;2023-04-03T02:53:33;4.00;99.90
12853;DHT22;6495;51.808;7.478;2023-04-03T02:56:29;3.90;99.90
12853;DHT22;6495;51.808;7.478;2023-04-03T02:59:18;3.90;99.90
12853;DHT22;6495;51.808;7.478;2023-04-03T03:02:08;3.90;99.90
12853;DHT22;6495;51.808;7.478;2023-04-03T03:04:57;3.90;99.90
12853;DHT22;6495;51.808;7.478;2023-04-03T03:07:45;3.80;99.90
12853;DHT22;6495;51.808;7.478;2023-04-03T03:10:34;3.80;99.90
12853;DHT22;6495;51.808;7.478;2023-04-03T03:13:27;3.80;99.90
12853;DHT22;6495;51.808;7.478;2023-04-03T03:16:19;3.70;99.90
12853;DHT22;6495;51.808;7.478;2023-04-03T03:19:09;3.70;99.90
12853;DHT22;6495;51.808;7.478;2023-04-03T03:22:01;3.70;99.90
12853;DHT22;6495;51.808;7.478;2023-04-03T03:25:03;3.70;99.90
12853;DHT22;6495;51.808;7.478;2023-04-03T03:28:04;3.70;99.90
12853;DHT22;6495;51.808;7.478;2023-04-03T03:30:58;3.60;99.90
12853;DHT22;6495;51.808;7.478;2023-04-03T03:33:54;3.60;99.90
12853;DHT22;6495;51.808;7.478;2023-04-03T03:36:51;3.60;99.90
12853;DHT22;6495;51.808;7.478;2023-04-03T03:39:42;3.50;99.90
12853;DHT22;6495;51.808;7.478;2023-04-03T03:42:37;3.50;99.90
12853;DHT22;6495;51.808;7.478;2023-04-03T03:45:27;3.50;99.90
12853;DHT22;6495;51.808;7.478;2023-04-03T03:48:31;3.50;99.90
12853;DHT22;6495;51.808;7.478;2023-04-03T03:51:23;3.40;99.90
12853;DHT22;6495;51.808;7.478;2023-04-03T03:54:17;3.40;99.90
12853;DHT22;6495;51.808;7.478;2023-04-03T03:57:09;3.40;99.90
12853;DHT22;6495;51.808;7.478;2023-04-03T03:59:59;3.40;99.90
12853;DHT22;6495;51.808;7.478;2023-04-03T04:02:49;3.40;99.90
12853;DHT22;6495;51.808;7.478;2023-04-03T04:05:43;3.30;99.90
12853;DHT22;6495;51.808;7.478;2023-04-03T04:08:32;3.30;99.90
12853;DHT22;6495;51.808;7.478;2023-04-03T04:11:21;3.30;99.90
12853;DHT22;6495;51.808;7.478;2023-04-03T04:14:11;3.20;99.90
12853;DHT22;6495;51.808;7.478;2023-04-03T04:17:02;3.20;99.90
12853;DHT22;6495;51.808;7.478;2023-04-03T04:19:50;3.20;99.90
12853;DHT22;6495;51.808;7.478;2023-04-03T04:22:40;3.10;99.90
12853;DHT22;6495;51.808;7.478;2023-04-03T04:25:29;3.10;99.90
12853;DHT22;6495;51.808;7.478;2023-04-03T04:28:25;3.10;99.90
12853;DHT22;6495;51.808;7.478;2023-04-03T04:31:16;3.00;99.90
12853;DHT22;6495;51.808;7.478;2023-04-03T04:34:05;3.00;99.90
12853;DHT22;6495;51.808;7.478;2023-04-03T04:36:56;3.00;99.90
12853;DHT22;6495;51.808;7.478;2023-04-03T04:39:47;2.90;99.90
12853;DHT22;6495;51.808;7.478;2023-04-03T04:42:36;2.90;99.90
12853;DHT22;6495;51.808;7.478;2023-04-03T04:45:26;2.90;99.90
12853;DHT22;6495;51.808;7.478;2023-04-03T04:48:14;2.80;99.90
12853;DHT22;6495;51.808;7.478;2023-04-03T04:51:04;2.80;99.90
12853;DHT22;6495;51.808;7.478;2023-04-03T04:53:54;2.80;99.90
12853;DHT22;6495;51.808;7.478;2023-04-03T04:56:45;2.70;99.90
12853;DHT22;6495;51.808;7.478;2023-04-03T04:59:34;2.70;99.90
12853;DHT22;6495;51.808;7.478;2023-04-03T05:02:23;2.70;99.90
12853;DHT22;6495;51.808;7.478;2023-04-03T05:05:19;2.70;99.90
12853;DHT22;6495;51.808;7.478;2023-04-03T05:08:17;2.60;99.90
12853;DHT22;6495;51.808;7.478;2023-04-03T05:11:06;2.60;99.90
12853;DHT22;6495;51.808;7.478;2023-04-03T05:14:21;2.60;99.90
12853;DHT22;6495;51.808;7.478;2023-04-03T05:17:20;2.60;99.90
12853;DHT22;6495;51.808;7.478;2023-04-03T05:20:16;2.50;99.90
12853;DHT22;6495;51.808;7.478;2023-04-03T05:23:18;2.50;99.90
12853;DHT22;6495;51.808;7.478;2023-04-03T05:26:19;2.50;99.90
12853;DHT22;6495;51.808;7.478;2023-04-03T05:34:07;2.50;99.90
12853;DHT22;6495;51.808;7.478;2023-04-03T05:37:12;2.50;99.90
12853;DHT22;6495;51.808;7.478;2023-04-03T05:40:14;2.50;99.90
12853;DHT22;6495;51.808;7.478;2023-04-03T05:43:16;2.50;99.90
12853;DHT22;6495;51.808;7.478;2023-04-03T05:49:42;2.50;99.90
12853;DHT22;6495;51.808;7.478;2023-04-03T05:52:40;2.60;99.90
12853;DHT22;6495;51.808;7.478;2023-04-03T05:55:33;2.60;99.90
12853;DHT22;6495;51.808;7.478;2023-04-03T05:58:22;2.60;99.90
12853;DHT22;6495;51.808;7.478;2023-04-03T06:01:12;2.60;99.90
12853;DHT22;6495;51.808;7.478;2023-04-03T06:04:01;2.60;99.90
12853;DHT22;6495;51.808;7.478;2023-04-03T06:07:13;2.60;99.90
12853;DHT22;6495;51.808;7.478;2023-04-03T06:10:19;2.60;99.90
12853;DHT22;6495;51.808;7.478;2023-04-03T06:13:14;2.60;99.90
12853;DHT22;6495;51.808;7.478;2023-04-03T06:16:24;2.60;99.90
12853;DHT22;6495;51.808;7.478;2023-04-03T06:19:21;2.70;99.90
12853;DHT22;6495;51.808;7.478;2023-04-03T06:22:17;2.70;99.90
12853;DHT22;6495;51.808;7.478;2023-04-03T06:25:44;2.70;99.90
12853;DHT22;6495;51.808;7.478;2023-04-03T06:28:50;2.70;99.90
12853;DHT22;6495;51.808;7.478;2023-04-03T06:31:51;2.70;99.90
12853;DHT22;6495;51.808;7.478;2023-04-03T06:34:51;2.70;99.90
12853;DHT22;6495;51.808;7.478;2023-04-03T06:37:58;2.70;99.90
12853;DHT22;6495;51.808;7.478;2023-04-03T06:41:01;2.80;99.90
12853;DHT22;6495;51.808;7.478;2023-04-03T06:43:56;2.80;99.90
12853;DHT22;6495;51.808;7.478;2023-04-03T06:47:06;2.80;99.90
12853;DHT22;6495;51.808;7.478;2023-04-03T06:49:55;2.80;99.90
12853;DHT22;6495;51.808;7.478;2023-04-03T06:52:56;2.80;99.90
12853;DHT22;6495;51.808;7.478;2023-04-03T06:55:45;2.90;99.90
12853;DHT22;6495;51.808;7.478;2023-04-03T06:58:34;2.90;99.90
12853;DHT22;6495;51.808;7.478;2023-04-03T07:01:24;3.00;99.90
12853;DHT22;6495;51.808;7.478;2023-04-03T07:04:15;3.00;99.90
12853;DHT22;6495;51.808;7.478;2023-04-03T07:07:03;3.00;99.90
12853;DHT22;6495;51.808;7.478;2023-04-03T07:09:53;3.00;99.90
12853;DHT22;6495;51.808;7.478;2023-04-03T07:12:42;3.00;99.90
12853;DHT22;6495;51.808;7.478;2023-04-03T07:15:30;3.10;99.90
12853;DHT22;6495;51.808;7.478;2023-04-03T07:18:19;3.10;99.90
12853;DHT22;6495;51.808;7.478;2023-04-03T07:21:08;3.20;99.90
12853;DHT22;6495;51.808;7.478;2023-04-03T07:24:16;3.20;99.90
12853;DHT22;6495;51.808;7.478;2023-04-03T07:27:06;3.30;99.90
12853;DHT22;6495;51.808;7.478;2023-04-03T07:30:01;3.40;99.90
12853;DHT22;6495;51.808;7.478;2023-04-03T07:32:50;3.40;99.90
12853;DHT22;6495;51.808;7.478;2023-04-03T07:35:39;3.50;99.90
12853;DHT22;6495;51.808;7.478;2023-04-03T07:38:34;3.60;99.90
12853;DHT22;6495;51.808;7.478;2023-04-03T07:41:30;3.70;99.90
12853;DHT22;6495;51.808;7.478;2023-04-03T07:44:19;3.80;99.90
12853;DHT22;6495;51.808;7.478;2023-04-03T07:47:08;3.90;99.90
12853;DHT22;6495;51.808;7.478;2023-04-03T07:49:57;4.10;99.90
12853;DHT22;6495;51.808;7.478;2023-04-03T07:52:47;4.10;99.90
12853;DHT22;6495;51.808;7.478;2023-04-03T07:55:37;4.30;99.90
12853;DHT22;6495;51.808;7.478;2023-04-03T07:58:30;4.40;99.90
12853;DHT22;6495;51.808;7.478;2023-04-03T08:01:21;4.50;99.90
12853;DHT22;6495;51.808;7.478;2023-04-03T08:04:10;4.60;99.90
12853;DHT22;6495;51.808;7.478;2023-04-03T08:06:58;4.70;99.90
12853;DHT22;6495;51.808;7.478;2023-04-03T08:09:47;4.80;99.90
12853;DHT22;6495;51.808;7.478;2023-04-03T08:12:36;4.90;99.90
12853;DHT22;6495;51.808;7.478;2023-04-03T08:15:24;5.10;99.90
12853;DHT22;6495;51.808;7.478;2023-04-03T08:18:15;5.10;99.90
12853;DHT22;6495;51.808;7.478;2023-04-03T08:21:06;5.20;99.90
12853;DHT22;6495;51.808;7.478;2023-04-03T08:23:55;5.30;99.90
12853;DHT22;6495;51.808;7.478;2023-04-03T08:26:44;5.30;99.90
12853;DHT22;6495;51.808;7.478;2023-04-03T08:29:32;5.30;99.90
12853;DHT22;6495;51.808;7.478;2023-04-03T08:32:21;5.40;99.90
12853;DHT22;6495;51.808;7.478;2023-04-03T08:35:11;5.50;99.90
12853;DHT22;6495;51.808;7.478;2023-04-03T08:38:00;5.70;99.90
12853;DHT22;6495;51.808;7.478;2023-04-03T08:41:00;5.80;99.90
12853;DHT22;6495;51.808;7.478;2023-04-03T08:43:58;5.90;99.90
12853;DHT22;6495;51.808;7.478;2023-04-03T08:47:04;6.00;99.90
12853;DHT22;6495;51.808;7.478;2023-04-03T08:50:05;6.00;99.90
12853;DHT22;6495;51.808;7.478;2023-04-03T08:52:59;6.10;99.90
12853;DHT22;6495;51.808;7.478;2023-04-03T08:55:53;6.10;99.90
12853;DHT22;6495;51.808;7.478;2023-04-03T08:58:47;6.20;99.90
12853;DHT22;6495;51.808;7.478;2023-04-03T09:01:40;6.30;99.90
12853;DHT22;6495;51.808;7.478;2023-04-03T09:04:31;6.40;99.90
12853;DHT22;6495;51.808;7.478;2023-04-03T09:07:25;6.60;99.90
12853;DHT22;6495;51.808;7.478;2023-04-03T09:10:28;6.70;99.90
12853;DHT22;6495;51.808;7.478;2023-04-03T09:13:24;6.80;99.90
12853;DHT22;6495;51.808;7.478;2023-04-03T09:16:31;6.80;99.90
12853;DHT22;6495;51.808;7.478;2023-04-03T09:19:35;6.90;99.90
12853;DHT22;6495;51.808;7.478;2023-04-03T09:22:31;6.90;99.90
12853;DHT22;6495;51.808;7.478;2023-04-03T09:25:36;6.80;99.90
12853;DHT22;6495;51.808;7.478;2023-04-03T09:28:27;6.90;99.90
12853;DHT22;6495;51.808;7.478;2023-04-03T09:31:35;6.90;99.90
12853;DHT22;6495;51.808;7.478;2023-04-03T09:34:28;6.90;99.90
12853;DHT22;6495;51.808;7.478;2023-04-03T09:37:41;7.00;99.90
12853;DHT22;6495;51.808;7.478;2023-04-03T09:40:37;7.20;99.90
12853;DHT22;6495;51.808;7.478;2023-04-03T09:43:29;7.20;99.90
12853;DHT22;6495;51.808;7.478;2023-04-03T09:46:30;7.30;99.90
12853;DHT22;6495;51.808;7.478;2023-04-03T09:49:20;7.40;99.90
12853;DHT22;6495;51.808;7.478;2023-04-03T09:52:19;7.40;99.90
12853;DHT22;6495;51.808;7.478;2023-04-03T09:55:14;7.40;99.90
12853;DHT22;6495;51.808;7.478;2023-04-03T09:58:23;7.50;99.90
12853;DHT22;6495;51.808;7.478;2023-04-03T10:01:26;7.60;99.90
12853;DHT22;6495;51.808;7.478;2023-04-03T10:04:17;7.60;99.90
12853;DHT22;6495;51.808;7.478;2023-04-03T10:07:32;7.70;99.90
12853;DHT22;6495;51.808;7.478;2023-04-03T10:10:23;7.80;99.90
12853;DHT22;6495;51.808;7.478;2023-04-03T10:13:24;7.80;99.90
12853;DHT22;6495;51.808;7.478;2023-04-03T10:16:16;7.90;99.90
12853;DHT22;6495;51.808;7.478;2023-04-03T10:19:25;7.90;99.90
12853;DHT22;6495;51.808;7.478;2023-04-03T10:22:26;7.90;99.90
12853;DHT22;6495;51.808;7.478;2023-04-03T10:25:28;8.00;99.90
12853;DHT22;6495;51.808;7.478;2023-04-03T10:28:31;8.20;99.10
12853;DHT22;6495;51.808;7.478;2023-04-03T10:31:27;8.20;98.60
12853;DHT22;6495;51.808;7.478;2023-04-03T10:34:23;8.20;98.00
12853;DHT22;6495;51.808;7.478;2023-04-03T10:37:18;8.20;98.50
12853;DHT22;6495;51.808;7.478;2023-04-03T10:40:19;8.30;97.20
12853;DHT22;6495;51.808;7.478;2023-04-03T10:43:24;8.30;97.10
12853;DHT22;6495;51.808;7.478;2023-04-03T10:46:27;8.30;96.90
12853;DHT22;6495;51.808;7.478;2023-04-03T10:49:33;8.40;97.30
12853;DHT22;6495;51.808;7.478;2023-04-03T10:52:50;8.50;97.30
12853;DHT22;6495;51.808;7.478;2023-04-03T10:55:50;8.60;98.00
12853;DHT22;6495;51.808;7.478;2023-04-03T10:58:50;8.60;97.40
12853;DHT22;6495;51.808;7.478;2023-04-03T11:01:48;8.60;96.70
12853;DHT22;6495;51.808;7.478;2023-04-03T11:04:42;8.60;96.60
12853;DHT22;6495;51.808;7.478;2023-04-03T11:07:38;8.60;96.60
12853;DHT22;6495;51.808;7.478;2023-04-03T11:10:37;8.70;96.60
12853;DHT22;6495;51.808;7.478;2023-04-03T11:13:34;8.70;96.40
12853;DHT22;6495;51.808;7.478;2023-04-03T11:16:29;8.80;97.30
12853;DHT22;6495;51.808;7.478;2023-04-03T11:19:35;8.80;95.50
12853;DHT22;6495;51.808;7.478;2023-04-03T11:22:30;8.80;93.60
12853;DHT22;6495;51.808;7.478;2023-04-03T11:25:22;8.80;95.20
12853;DHT22;6495;51.808;7.478;2023-04-03T11:28:14;8.90;95.80
12853;DHT22;6495;51.808;7.478;2023-04-03T11:31:12;8.90;95.50
12853;DHT22;6495;51.808;7.478;2023-04-03T11:35:02;8.90;95.50
12853;DHT22;6495;51.808;7.478;2023-04-03T11:37:55;9.00;94.60
12853;DHT22;6495;51.808;7.478;2023-04-03T11:40:45;9.00;94.80
12853;DHT22;6495;51.808;7.478;2023-04-03T11:43:40;9.00;94.00
12853;DHT22;6495;51.808;7.478;2023-04-03T11:47:01;9.00;94.50
12853;DHT22;6495;51.808;7.478;2023-04-03T11:49:57;9.00;92.60
12853;DHT22;6495;51.808;7.478;2023-04-03T11:53:10;9.00;94.10
12853;DHT22;6495;51.808;7.478;2023-04-03T11:56:30;9.10;93.60
12853;DHT22;6495;51.808;7.478;2023-04-03T11:59:23;9.10;93.70
12853;DHT22;6495;51.808;7.478;2023-04-03T12:02:37;9.20;93.70
12853;DHT22;6495;51.808;7.478;2023-04-03T12:05:30;9.10;92.80
12853;DHT22;6495;51.808;7.478;2023-04-03T12:08:27;9.10;92.60
12853;DHT22;6495;51.808;7.478;2023-04-03T12:11:25;9.10;92.30
12853;DHT22;6495;51.808;7.478;2023-04-03T12:14:17;9.10;93.20
12853;DHT22;6495;51.808;7.478;2023-04-03T12:17:20;9.10;93.60
12853;DHT22;6495;51.808;7.478;2023-04-03T12:24:03;9.20;93.70
12853;DHT22;6495;51.808;7.478;2023-04-03T12:27:05;9.30;92.40
12853;DHT22;6495;51.808;7.478;2023-04-03T12:30:18;9.40;94.40
12853;DHT22;6495;51.808;7.478;2023-04-03T12:41:48;9.30;92.70
12853;DHT22;6495;51.808;7.478;2023-04-03T13:15:16;9.50;92.80
12853;DHT22;6495;51.808;7.478;2023-04-03T13:18:25;9.50;91.80
12853;DHT22;6495;51.808;7.478;2023-04-03T13:21:20;9.50;91.70
12853;DHT22;6495;51.808;7.478;2023-04-03T13:24:16;9.50;92.10
12853;DHT22;6495;51.808;7.478;2023-04-03T13:27:06;9.50;91.00
12853;DHT22;6495;51.808;7.478;2023-04-03T13:29:57;9.50;91.50
12853;DHT22;6495;51.808;7.478;2023-04-03T13:33:01;9.50;91.60
12853;DHT22;6495;51.808;7.478;2023-04-03T13:36:07;9.60;91.50
12853;DHT22;6495;51.808;7.478;2023-04-03T13:39:20;9.60;91.10
12853;DHT22;6495;51.808;7.478;2023-04-03T13:42:22;9.60;90.70
12853;DHT22;6495;51.808;7.478;2023-04-03T13:45:19;9.60;90.40
12853;DHT22;6495;51.808;7.478;2023-04-03T13:48:18;9.60;90.90
12853;DHT22;6495;51.808;7.478;2023-04-03T13:51:25;9.60;90.60
12853;DHT22;6495;51.808;7.478;2023-04-03T13:54:19;9.60;91.40
12853;DHT22;6495;51.808;7.478;2023-04-03T13:57:15;9.70;91.30
12853;DHT22;6495;51.808;7.478;2023-04-03T14:00:26;9.70;91.60
12853;DHT22;6495;51.808;7.478;2023-04-03T14:03:22;9.70;89.40
12853;DHT22;6495;51.808;7.478;2023-04-03T14:06:16;9.70;91.40
12853;DHT22;6495;51.808;7.478;2023-04-03T14:09:05;9.70;91.40
12853;DHT22;6495;51.808;7.478;2023-04-03T14:11:54;9.70;90.90
12853;DHT22;6495;51.808;7.478;2023-04-03T14:14:48;9.70;91.10
12853;DHT22;6495;51.808;7.478;2023-04-03T14:17:37;9.60;90.50
12853;DHT22;6495;51.808;7.478;2023-04-03T14:20:27;9.60;90.50
12853;DHT22;6495;51.808;7.478;2023-04-03T14:23:17;9.60;90.20
12853;DHT22;6495;51.808;7.478;2023-04-03T14:26:10;9.60;90.50
12853;DHT22;6495;51.808;7.478;2023-04-03T14:29:04;9.60;89.10
12853;DHT22;6495;51.808;7.478;2023-04-03T14:31:53;9.60;89.20
12853;DHT22;6495;51.808;7.478;2023-04-03T14:35:00;9.60;88.00
12853;DHT22;6495;51.808;7.478;2023-04-03T14:37:52;9.60;90.00
12853;DHT22;6495;51.808;7.478;2023-04-03T14:40:42;9.70;90.60
12853;DHT22;6495;51.808;7.478;2023-04-03T14:43:31;9.80;91.10
12853;DHT22;6495;51.808;7.478;2023-04-03T14:46:28;9.80;90.30
12853;DHT22;6495;51.808;7.478;2023-04-03T14:49:39;9.80;90.70
12853;DHT22;6495;51.808;7.478;2023-04-03T14:52:30;9.90;90.20
12853;DHT22;6495;51.808;7.478;2023-04-03T14:55:23;9.80;90.50
12853;DHT22;6495;51.808;7.478;2023-04-03T14:58:14;9.90;90.60
12853;DHT22;6495;51.808;7.478;2023-04-03T15:01:09;9.90;90.10
12853;DHT22;6495;51.808;7.478;2023-04-03T15:03:59;9.90;89.20
12853;DHT22;6495;51.808;7.478;2023-04-03T15:06:48;9.80;88.60
12853;DHT22;6495;51.808;7.478;2023-04-03T15:09:38;9.80;89.70
12853;DHT22;6495;51.808;7.478;2023-04-03T15:12:38;9.80;89.90
12853;DHT22;6495;51.808;7.478;2023-04-03T15:15:29;9.80;87.90
12853;DHT22;6495;51.808;7.478;2023-04-03T15:18:20;9.80;88.30
12853;DHT22;6495;51.808;7.478;2023-04-03T15:21:20;9.80;87.50
12853;DHT22;6495;51.808;7.478;2023-04-03T15:24:09;9.80;89.70
12853;DHT22;6495;51.808;7.478;2023-04-03T15:26:59;9.80;88.40
12853;DHT22;6495;51.808;7.478;2023-04-03T15:29:50;9.80;85.90
12853;DHT22;6495;51.808;7.478;2023-04-03T15:32:38;9.80;86.20
12853;DHT22;6495;51.808;7.478;2023-04-03T15:35:27;9.80;85.60
12853;DHT22;6495;51.808;7.478;2023-04-03T15:38:15;9.80;87.70
12853;DHT22;6495;51.808;7.478;2023-04-03T15:41:04;9.80;86.40
12853;DHT22;6495;51.808;7.478;2023-04-03T15:44:00;9.90;88.20
12853;DHT22;6495;51.808;7.478;2023-04-03T15:46:50;9.90;86.60
12853;DHT22;6495;51.808;7.478;2023-04-03T15:49:39;9.90;85.40
12853;DHT22;6495;51.808;7.478;2023-04-03T15:52:27;9.90;84.70
12853;DHT22;6495;51.808;7.478;2023-04-03T15:55:16;9.90;86.30
12853;DHT22;6495;51.808;7.478;2023-04-03T15:58:05;9.90;85.60
12853;DHT22;6495;51.808;7.478;2023-04-03T16:00:53;9.90;85.70
12853;DHT22;6495;51.808;7.478;2023-04-03T16:03:44;9.90;84.90
12853;DHT22;6495;51.808;7.478;2023-04-03T16:06:33;10.00;84.30
12853;DHT22;6495;51.808;7.478;2023-04-03T16:09:22;10.00;84.90
12853;DHT22;6495;51.808;7.478;2023-04-03T16:12:10;10.00;83.80
12853;DHT22;6495;51.808;7.478;2023-04-03T16:14:59;10.00;83.90
12853;DHT22;6495;51.808;7.478;2023-04-03T16:17:53;9.90;83.70
12853;DHT22;6495;51.808;7.478;2023-04-03T16:20:44;9.90;83.50
12853;DHT22;6495;51.808;7.478;2023-04-03T16:23:33;9.90;85.10
12853;DHT22;6495;51.808;7.478;2023-04-03T16:26:22;9.90;84.60
12853;DHT22;6495;51.808;7.478;2023-04-03T16:33:34;9.90;82.90
12853;DHT22;6495;51.808;7.478;2023-04-03T16:36:25;9.90;84.40
12853;DHT22;6495;51.808;7.478;2023-04-03T16:39:14;9.90;84.30
12853;DHT22;6495;51.808;7.478;2023-04-03T16:42:03;9.90;83.50
12853;DHT22;6495;51.808;7.478;2023-04-03T16:44:51;9.90;84.30
12853;DHT22;6495;51.808;7.478;2023-04-03T16:47:40;9.90;84.70
12853;DHT22;6495;51.808;7.478;2023-04-03T16:50:29;9.80;83.60
12853;DHT22;6495;51.808;7.478;2023-04-03T16:53:19;9.80;84.20
12853;DHT22;6495;51.808;7.478;2023-04-03T16:56:08;9.90;85.20
12853;DHT22;6495;51.808;7.478;2023-04-03T16:58:56;9.80;84.60
12853;DHT22;6495;51.808;7.478;2023-04-03T17:01:45;9.80;84.40
12853;DHT22;6495;51.808;7.478;2023-04-03T17:04:34;9.80;84.50
12853;DHT22;6495;51.808;7.478;2023-04-03T17:07:23;9.70;84.80
12853;DHT22;6495;51.808;7.478;2023-04-03T17:10:14;9.70;83.50
12853;DHT22;6495;51.808;7.478;2023-04-03T17:13:03;9.70;83.60
12853;DHT22;6495;51.808;7.478;2023-04-03T17:15:51;9.60;83.80
12853;DHT22;6495;51.808;7.478;2023-04-03T17:18:42;9.60;82.50
12853;DHT22;6495;51.808;7.478;2023-04-03T17:25:48;9.40;81.60
12853;DHT22;6495;51.808;7.478;2023-04-03T17:28:41;9.30;82.40
12853;DHT22;6495;51.808;7.478;2023-04-03T17:31:46;9.20;83.50
12853;DHT22;6495;51.808;7.478;2023-04-03T17:35:15;9.10;82.60
12853;DHT22;6495;51.808;7.478;2023-04-03T17:38:38;9.10;82.60
12853;DHT22;6495;51.808;7.478;2023-04-03T17:49:51;8.90;84.30
12853;DHT22;6495;51.808;7.478;2023-04-03T17:52:52;8.80;83.20
12853;DHT22;6495;51.808;7.478;2023-04-03T17:55:49;8.70;83.60
12853;DHT22;6495;51.808;7.478;2023-04-03T17:58:44;8.70;84.80
12853;DHT22;6495;51.808;7.478;2023-04-03T18:01:34;8.60;84.70
12853;DHT22;6495;51.808;7.478;2023-04-03T18:04:23;8.60;85.00
12853;DHT22;6495;51.808;7.478;2023-04-03T18:07:34;8.60;85.40
12853;DHT22;6495;51.808;7.478;2023-04-03T18:14:32;8.50;85.80
12853;DHT22;6495;51.808;7.478;2023-04-03T18:17:27;8.50;86.50
12853;DHT22;6495;51.808;7.478;2023-04-03T18:20:16;8.40;86.70
12853;DHT22;6495;51.808;7.478;2023-04-03T18:23:07;8.40;87.20
12853;DHT22;6495;51.808;7.478;2023-04-03T18:25:56;8.40;87.50
12853;DHT22;6495;51.808;7.478;2023-04-03T18:28:48;8.40;87.40
12853;DHT22;6495;51.808;7.478;2023-04-03T18:31:42;8.40;87.60
12853;DHT22;6495;51.808;7.478;2023-04-03T18:34:37;8.30;87.80
12853;DHT22;6495;51.808;7.478;2023-04-03T18:37:26;8.30;88.10
12853;DHT22;6495;51.808;7.478;2023-04-03T18:40:18;8.20;88.30
12853;DHT22;6495;51.808;7.478;2023-04-03T18:43:08;8.20;88.90
12853;DHT22;6495;51.808;7.478;2023-04-03T18:45:59;8.20;89.50
12853;DHT22;6495;51.808;7.478;2023-04-03T18:48:48;8.20;89.70
12853;DHT22;6495;51.808;7.478;2023-04-03T18:51:37;8.10;89.70
12853;DHT22;6495;51.808;7.478;2023-04-03T18:54:27;8.10;90.10
12853;DHT22;6495;51.808;7.478;2023-04-03T18:57:17;8.10;90.20
12853;DHT22;6495;51.808;7.478;2023-04-03T19:00:07;8.00;90.10
12853;DHT22;6495;51.808;7.478;2023-04-03T19:03:00;8.00;90.40
12853;DHT22;6495;51.808;7.478;2023-04-03T19:05:50;7.90;90.60
12853;DHT22;6495;51.808;7.478;2023-04-03T19:08:39;7.90;90.80
12853;DHT22;6495;51.808;7.478;2023-04-03T19:11:32;7.80;91.00
12853;DHT22;6495;51.808;7.478;2023-04-03T19:14:22;7.80;91.20
12853;DHT22;6495;51.808;7.478;2023-04-03T19:17:14;7.70;91.50
12853;DHT22;6495;51.808;7.478;2023-04-03T19:20:10;7.70;91.70
12853;DHT22;6495;51.808;7.478;2023-04-03T19:23:00;7.60;91.90
12853;DHT22;6495;51.808;7.478;2023-04-03T19:25:57;7.60;92.00
12853;DHT22;6495;51.808;7.478;2023-04-03T19:28:47;7.50;91.80
12853;DHT22;6495;51.808;7.478;2023-04-03T19:31:38;7.50;91.80
12853;DHT22;6495;51.808;7.478;2023-04-03T19:34:28;7.40;91.90
12853;DHT22;6495;51.808;7.478;2023-04-03T19:37:17;7.40;92.00
12853;DHT22;6495;51.808;7.478;2023-04-03T19:40:07;7.40;92.00
12853;DHT22;6495;51.808;7.478;2023-04-03T19:42:56;7.40;92.00
12853;DHT22;6495;51.808;7.478;2023-04-03T19:45:45;7.30;92.00
12853;DHT22;6495;51.808;7.478;2023-04-03T19:48:35;7.30;92.30
12853;DHT22;6495;51.808;7.478;2023-04-03T19:51:26;7.30;92.00
12853;DHT22;6495;51.808;7.478;2023-04-03T19:54:15;7.20;91.90
12853;DHT22;6495;51.808;7.478;2023-04-03T19:57:05;7.20;92.00
12853;DHT22;6495;51.808;7.478;2023-04-03T19:59:54;7.10;92.30
12853;DHT22;6495;51.808;7.478;2023-04-03T20:02:43;7.10;92.60
12853;DHT22;6495;51.808;7.478;2023-04-03T20:05:33;7.00;92.80
12853;DHT22;6495;51.808;7.478;2023-04-03T20:08:22;6.90;92.80
12853;DHT22;6495;51.808;7.478;2023-04-03T20:11:14;6.90;93.00